createdAt,value
2019-02-08T00:04:32.947Z,4.07
2019-02-08T00:09:35.584Z,4.10
2019-02-08T00:14:38.850Z,4.10
2019-02-08T00:19:41.259Z,4.12
2019-02-08T00:24:43.834Z,4.14
2019-02-08T00:29:46.008Z,4.13
2019-02-08T00:34:48.176Z,4.13
2019-02-08T00:39:50.382Z,4.14
2019-02-08T00:44:52.574Z,4.12
2019-02-08T00:49:54.797Z,4.10
2019-02-08T00:54:58.614Z,4.08
2019-02-08T01:00:01.718Z,4.03
2019-02-08T01:05:08.603Z,3.99
2019-02-08T01:10:16.969Z,3.96
2019-02-08T01:15:20.290Z,3.91
2019-02-08T01:20:23.135Z,3.88
2019-02-08T01:25:26.356Z,3.83
2019-02-08T01:30:29.601Z,3.80
2019-02-08T01:35:32.087Z,3.76
2019-02-08T01:40:36.078Z,3.76
2019-02-08T01:45:38.333Z,3.79
2019-02-08T01:50:40.504Z,3.85
2019-02-08T01:55:43.049Z,3.90
2019-02-08T02:00:45.592Z,3.94
2019-02-08T02:05:48.246Z,4.01
2019-02-08T02:10:50.651Z,4.03
2019-02-08T02:15:53.038Z,4.00
2019-02-08T02:20:55.228Z,3.95
2019-02-08T02:25:57.880Z,3.91
2019-02-08T02:31:00.147Z,3.84
2019-02-08T02:36:03.726Z,3.81
2019-02-08T02:41:06.507Z,3.79
2019-02-08T02:46:09.218Z,3.78
2019-02-08T02:51:12.588Z,3.77
2019-02-08T02:56:14.773Z,3.77
2019-02-08T03:01:17.398Z,3.77
2019-02-08T03:06:21.615Z,3.77
2019-02-08T03:11:24.514Z,3.78
2019-02-08T03:16:27.117Z,3.77
2019-02-08T03:21:29.348Z,3.80
2019-02-08T03:26:32.529Z,3.78
2019-02-08T03:31:34.690Z,3.79
2019-02-08T03:36:37.223Z,3.79
2019-02-08T03:41:39.397Z,3.80
2019-02-08T03:46:41.904Z,3.83
2019-02-08T03:51:44.099Z,3.84
2019-02-08T03:56:47.789Z,3.84
2019-02-08T04:01:50.353Z,3.86
2019-02-08T04:06:53.256Z,3.92
2019-02-08T04:11:55.786Z,3.96
2019-02-08T04:16:58.348Z,3.94
2019-02-08T04:22:00.541Z,3.96
2019-02-08T04:27:03.556Z,3.96
2019-02-08T04:32:05.764Z,4.01
2019-02-08T04:37:08.361Z,4.00
2019-02-08T04:42:10.529Z,4.02
2019-02-08T04:47:13.042Z,3.99
2019-02-08T04:52:15.823Z,3.94
2019-02-08T04:57:19.376Z,3.89
2019-02-08T05:02:21.518Z,3.87
2019-02-08T05:07:23.992Z,3.88
2019-02-08T05:12:26.445Z,3.86
2019-02-08T05:17:28.741Z,3.88
2019-02-08T05:22:31.334Z,3.89
2019-02-08T05:27:34.658Z,3.89
2019-02-08T05:32:38.376Z,3.88
2019-02-08T05:37:40.563Z,3.85
2019-02-08T05:42:42.736Z,3.80
2019-02-08T05:47:45.036Z,3.78
2019-02-08T05:52:47.739Z,3.76
2019-02-08T05:57:50.796Z,3.72
2019-02-08T06:02:53.469Z,3.71
2019-02-08T06:07:56.296Z,3.69
2019-02-08T06:12:59.037Z,3.68
2019-02-08T06:18:01.737Z,3.69
2019-02-08T06:23:05.656Z,3.70
2019-02-08T06:28:08.742Z,3.71
2019-02-08T06:33:11.254Z,3.71
2019-02-08T06:38:14.992Z,3.71
2019-02-08T06:43:17.367Z,3.71
2019-02-08T06:48:20.195Z,3.72
2019-02-08T06:53:22.474Z,3.71
2019-02-08T06:58:37.848Z,3.75
2019-02-08T07:04:02.658Z,3.77
2019-02-08T07:09:15.795Z,3.79
2019-02-08T07:14:30.732Z,3.77
2019-02-08T07:19:59.631Z,3.75
2019-02-08T07:25:24.414Z,3.77
2019-02-08T07:30:55.488Z,3.77
2019-02-08T07:36:09.608Z,3.81
2019-02-08T07:41:23.962Z,3.84
2019-02-08T07:46:33.173Z,3.91
2019-02-08T07:51:56.557Z,4.05
2019-02-08T07:57:15.513Z,4.15
2019-02-08T08:02:26.469Z,4.28
2019-02-08T08:07:47.530Z,4.37
2019-02-08T08:13:15.681Z,4.46
2019-02-08T08:18:43.541Z,4.49
2019-02-08T08:24:12.678Z,4.65
2019-02-08T08:29:35.595Z,4.95
2019-02-08T08:35:04.708Z,5.08
2019-02-08T08:41:03.642Z,5.14
2019-02-08T08:46:45.255Z,5.14
2019-02-08T08:52:49.163Z,5.28
2019-02-08T08:58:26.332Z,5.54
2019-02-08T09:04:28.962Z,6.03
2019-02-08T09:10:30.059Z,6.56
2019-02-08T09:16:34.987Z,6.45
2019-02-08T09:22:12.621Z,6.27
2019-02-08T09:28:10.994Z,6.92
2019-02-08T09:33:58.803Z,7.47
2019-02-08T09:40:00.562Z,7.44
2019-02-08T09:45:56.357Z,7.99
2019-02-08T09:52:10.680Z,8.35
2019-02-08T09:58:30.474Z,8.61
2019-02-08T10:04:27.253Z,9.19
2019-02-08T10:10:35.396Z,9.56
2019-02-08T10:17:00.586Z,9.99
2019-02-08T10:22:58.985Z,9.99
2019-02-08T10:29:04.535Z,10.39
2019-02-08T10:35:32.080Z,10.68
2019-02-08T10:41:30.416Z,10.55
2019-02-08T10:47:15.042Z,10.40
2019-02-08T10:53:09.007Z,9.57
2019-02-08T10:59:20.380Z,9.55
2019-02-08T11:05:28.363Z,9.52
2019-02-08T11:11:17.542Z,9.25
2019-02-08T11:17:32.057Z,9.13
2019-02-08T11:22:34.637Z,9.02
2019-02-08T11:27:36.790Z,9.06
2019-02-08T11:32:43.165Z,8.96
2019-02-08T11:37:43.836Z,9.01
2019-02-08T11:42:46.348Z,9.04
2019-02-08T11:47:48.823Z,9.03
2019-02-08T11:52:51.476Z,9.05
2019-02-08T11:57:53.986Z,8.97
2019-02-08T12:02:56.501Z,8.98
2019-02-08T12:07:59.157Z,9.11
2019-02-08T12:13:01.793Z,9.17
2019-02-08T12:18:04.583Z,9.17
2019-02-08T12:23:07.457Z,9.11
2019-02-08T12:28:10.247Z,9.13
2019-02-08T12:33:13.936Z,9.13
2019-02-08T12:38:16.973Z,9.20
2019-02-08T12:43:39.438Z,9.20
2019-02-08T12:48:41.785Z,9.10
2019-02-08T12:53:44.036Z,9.12
2019-02-08T12:58:47.240Z,9.22
2019-02-08T13:03:49.560Z,9.11
2019-02-08T13:08:52.071Z,9.11
2019-02-08T13:13:54.357Z,9.13
2019-02-08T13:18:56.769Z,9.01
2019-02-08T13:23:59.344Z,8.96
2019-02-08T13:29:02.220Z,9.05
2019-02-08T13:34:05.177Z,9.16
2019-02-08T13:39:09.122Z,9.25
2019-02-08T13:44:13.462Z,9.21
2019-02-08T13:49:15.678Z,9.18
2019-02-08T13:54:18.016Z,9.32
2019-02-08T13:59:21.112Z,9.41
2019-02-08T14:04:23.896Z,9.57
2019-02-08T14:09:26.209Z,9.40
2019-02-08T14:14:29.164Z,9.34
2019-02-08T14:19:32.552Z,9.38
2019-02-08T14:24:35.121Z,9.37
2019-02-08T14:29:38.111Z,9.48
2019-02-08T14:34:43.701Z,9.49
2019-02-08T14:39:47.693Z,9.46
2019-02-08T14:44:50.312Z,9.40
2019-02-08T14:49:53.805Z,9.42
2019-02-08T14:54:56.401Z,9.41
2019-02-08T14:59:59.299Z,9.33
2019-02-08T15:05:02.140Z,9.19
2019-02-08T15:10:10.507Z,9.10
2019-02-08T15:15:13.424Z,9.09
2019-02-08T15:20:23.130Z,9.05
2019-02-08T15:25:26.210Z,9.04
2019-02-08T15:30:31.157Z,9.04
2019-02-08T15:35:35.152Z,9.01
2019-02-08T15:40:41.673Z,8.99
2019-02-08T15:45:51.879Z,8.94
2019-02-08T15:50:54.500Z,8.95
2019-02-08T15:56:02.883Z,8.89
2019-02-08T16:01:09.649Z,8.80
2019-02-08T16:06:12.093Z,8.79
2019-02-08T16:11:14.715Z,8.73
2019-02-08T16:16:17.652Z,8.70
2019-02-08T16:21:20.966Z,8.64
2019-02-08T16:26:24.794Z,8.60
2019-02-08T16:31:27.661Z,8.60
2019-02-08T16:36:30.196Z,8.61
2019-02-08T16:41:32.857Z,8.61
2019-02-08T16:46:35.549Z,8.61
2019-02-08T16:51:38.718Z,8.62
2019-02-08T16:56:41.094Z,8.63
2019-02-08T17:01:43.651Z,8.58
2019-02-08T17:06:46.292Z,8.58
2019-02-08T17:11:48.674Z,8.57
2019-02-08T17:16:51.030Z,8.54
2019-02-08T17:21:53.376Z,8.53
2019-02-08T17:26:56.697Z,8.50
2019-02-08T17:31:58.945Z,8.47
2019-02-08T17:37:01.197Z,8.46
2019-02-08T17:42:04.384Z,8.42
2019-02-08T17:47:06.882Z,8.42
2019-02-08T17:52:09.172Z,8.43
2019-02-08T17:57:11.862Z,8.41
2019-02-08T18:02:15.189Z,8.39
2019-02-08T18:07:17.536Z,8.34
2019-02-08T18:12:19.848Z,8.31
2019-02-08T18:17:22.448Z,8.28
2019-02-08T18:22:25.065Z,8.26
2019-02-08T18:27:27.448Z,8.25
2019-02-08T18:32:29.653Z,8.23
2019-02-08T18:37:32.391Z,8.21
2019-02-08T18:42:37.141Z,8.17
2019-02-08T18:47:40.039Z,8.09
2019-02-08T18:52:44.517Z,8.04
2019-02-08T18:57:47.320Z,7.94
2019-02-08T19:02:50.191Z,7.85
2019-02-08T19:07:53.188Z,7.81
2019-02-08T19:12:55.690Z,7.73
2019-02-08T19:17:58.083Z,7.63
2019-02-08T19:23:00.726Z,7.52
2019-02-08T19:28:05.728Z,7.45
2019-02-08T19:33:10.834Z,7.40
2019-02-08T19:38:13.828Z,7.38
2019-02-08T19:43:16.709Z,7.34
2019-02-08T19:48:20.833Z,7.29
2019-02-08T19:53:23.723Z,7.26
2019-02-08T19:58:34.091Z,7.26
2019-02-08T20:03:30.415Z,7.29
2019-02-08T20:08:32.702Z,7.24
2019-02-08T20:13:34.908Z,7.26
2019-02-08T20:18:37.131Z,7.27
2019-02-08T20:23:39.529Z,7.26
2019-02-08T20:28:42.769Z,7.26
2019-02-08T20:33:46.117Z,7.25
2019-02-08T20:38:48.654Z,7.25
2019-02-08T20:43:51.382Z,7.25
2019-02-08T20:48:54.314Z,7.28
2019-02-08T20:53:56.879Z,7.31
2019-02-08T20:58:59.767Z,7.34
2019-02-08T21:04:02.215Z,7.34
2019-02-08T21:09:12.408Z,7.32
2019-02-08T21:14:15.043Z,7.36
2019-02-08T21:19:17.677Z,7.35
2019-02-08T21:24:19.907Z,7.36
2019-02-08T21:29:22.464Z,7.32
2019-02-08T21:34:24.822Z,7.34
2019-02-08T21:39:27.684Z,7.34
2019-02-08T21:44:30.267Z,7.28
2019-02-08T21:49:33.143Z,7.26
2019-02-08T21:54:37.974Z,7.21
2019-02-08T21:59:40.631Z,7.18
2019-02-08T22:04:42.993Z,7.17
2019-02-08T22:09:45.818Z,7.13
2019-02-08T22:14:48.393Z,7.06
2019-02-08T22:19:50.682Z,6.98
2019-02-08T22:24:53.162Z,6.92
2019-02-08T22:29:55.514Z,6.81
2019-02-08T22:34:58.856Z,6.71
2019-02-08T22:40:01.297Z,6.66
2019-02-08T22:45:09.142Z,6.62
2019-02-08T22:50:12.357Z,6.54
2019-02-08T22:55:17.459Z,6.49
2019-02-08T23:01:26.912Z,6.43
2019-02-08T23:06:29.423Z,6.40
2019-02-08T23:11:32.282Z,6.38
2019-02-08T23:16:34.858Z,6.34
2019-02-08T23:21:37.319Z,6.29
2019-02-08T23:26:40.083Z,6.30
2019-02-08T23:31:42.666Z,6.33
2019-02-08T23:36:45.260Z,6.33
2019-02-08T23:41:48.646Z,6.30
2019-02-08T23:46:51.270Z,6.30
2019-02-08T23:51:54.993Z,6.33
2019-02-08T23:56:58.214Z,6.36
